createdAt,value
2023-05-06T00:00:03.696Z,8.88
2023-05-06T00:02:30.404Z,11.57
2023-05-06T00:04:57.159Z,12.07
2023-05-06T00:07:23.881Z,11.60
2023-05-06T00:09:50.490Z,14.07
2023-05-06T00:12:19.272Z,12.60
2023-05-06T00:14:45.787Z,17.10
2023-05-06T00:17:12.333Z,15.45
2023-05-06T00:19:39.028Z,13.82
2023-05-06T00:22:05.800Z,12.38
2023-05-06T00:24:32.427Z,14.13
2023-05-06T00:26:58.947Z,15.23
2023-05-06T00:29:25.612Z,12.85
2023-05-06T00:31:52.175Z,13.85
2023-05-06T00:34:18.767Z,10.65
2023-05-06T00:36:45.373Z,9.73
2023-05-06T00:39:11.911Z,12.77
2023-05-06T00:41:38.467Z,12.77
2023-05-06T00:44:05.027Z,13.25
2023-05-06T00:46:31.545Z,12.05
2023-05-06T00:48:58.219Z,11.48
2023-05-06T00:51:26.177Z,13.13
2023-05-06T00:53:52.952Z,11.57
2023-05-06T00:56:20.877Z,11.55
2023-05-06T00:58:48.250Z,13.10
2023-05-06T01:01:14.955Z,12.00
2023-05-06T01:03:41.648Z,12.98
2023-05-06T01:06:19.428Z,13.57
2023-05-06T01:09:01.001Z,16.42
2023-05-06T01:11:59.669Z,15.07
2023-05-06T01:14:39.588Z,13.18
2023-05-06T01:17:11.238Z,12.98
2023-05-06T01:20:06.322Z,14.52
2023-05-06T01:22:36.609Z,12.93
2023-05-06T01:25:03.220Z,13.00
2023-05-06T01:27:29.763Z,13.93
2023-05-06T01:29:57.620Z,20.02
2023-05-06T01:32:52.067Z,20.73
2023-05-06T01:35:32.259Z,20.05
2023-05-06T01:38:01.852Z,15.27
2023-05-06T01:40:30.341Z,12.77
2023-05-06T01:42:57.583Z,16.40
2023-05-06T01:45:27.715Z,16.75
2023-05-06T01:47:54.710Z,14.75
2023-05-06T01:50:21.643Z,16.52
2023-05-06T01:53:00.011Z,14.60
2023-05-06T01:55:27.110Z,15.00
2023-05-06T01:57:59.291Z,14.85
2023-05-06T02:00:26.357Z,14.48
2023-05-06T02:02:53.079Z,16.13
2023-05-06T02:05:19.863Z,15.40
2023-05-06T02:07:46.407Z,16.48
2023-05-06T02:10:12.977Z,17.48
2023-05-06T02:12:39.554Z,13.63
2023-05-06T02:15:06.737Z,17.73
2023-05-06T02:17:35.871Z,19.23
2023-05-06T02:20:02.406Z,16.60
2023-05-06T02:22:28.919Z,14.32
2023-05-06T02:24:55.451Z,15.05
2023-05-06T02:27:24.625Z,16.13
2023-05-06T02:32:17.651Z,14.65
2023-05-06T02:34:44.233Z,19.58
2023-05-06T02:37:10.820Z,19.50
2023-05-06T02:39:37.363Z,15.95
2023-05-06T02:42:04.114Z,17.52
2023-05-06T02:44:30.784Z,15.98
2023-05-06T02:46:57.311Z,19.33
2023-05-06T02:49:23.875Z,17.20
2023-05-06T02:51:50.395Z,20.95
2023-05-06T02:54:16.939Z,18.58
2023-05-06T02:56:43.708Z,18.27
2023-05-06T02:59:10.297Z,15.88
2023-05-06T03:01:36.886Z,22.08
2023-05-06T03:04:03.755Z,23.65
2023-05-06T03:06:31.564Z,19.60
2023-05-06T03:08:58.098Z,17.90
2023-05-06T03:11:24.689Z,16.48
2023-05-06T03:13:51.354Z,19.10
2023-05-06T03:16:17.904Z,19.08
2023-05-06T03:18:44.811Z,18.95
2023-05-06T03:21:12.610Z,19.95
2023-05-06T03:23:39.142Z,20.17
2023-05-06T03:26:06.034Z,19.52
2023-05-06T03:28:32.672Z,18.45
2023-05-06T03:30:59.451Z,20.05
2023-05-06T03:33:25.998Z,19.73
2023-05-06T03:35:52.546Z,22.77
2023-05-06T03:38:19.143Z,17.67
2023-05-06T03:40:46.074Z,17.83
2023-05-06T03:43:12.748Z,18.40
2023-05-06T03:45:39.285Z,17.67
2023-05-06T03:48:05.927Z,17.38
2023-05-06T03:50:32.593Z,20.30
2023-05-06T03:52:59.339Z,16.08
2023-05-06T03:55:25.932Z,17.00
2023-05-06T03:57:52.578Z,14.57
2023-05-06T04:00:19.339Z,13.70
2023-05-06T04:02:45.918Z,14.82
2023-05-06T04:05:12.691Z,16.10
2023-05-06T04:07:39.371Z,17.65
2023-05-06T04:10:06.734Z,17.85
2023-05-06T04:12:34.356Z,18.00
2023-05-06T04:15:01.103Z,15.13
2023-05-06T04:17:27.715Z,18.25
2023-05-06T04:19:54.287Z,17.30
2023-05-06T04:22:20.927Z,16.05
2023-05-06T04:24:47.607Z,18.00
2023-05-06T04:27:15.095Z,15.48
2023-05-06T04:29:41.699Z,20.98
2023-05-06T04:32:10.315Z,21.45
2023-05-06T04:34:37.034Z,19.60
2023-05-06T04:37:03.751Z,20.05
2023-05-06T04:39:32.074Z,19.25
2023-05-06T04:41:58.647Z,17.25
2023-05-06T04:44:25.244Z,18.30
2023-05-06T04:46:51.785Z,18.67
2023-05-06T04:49:18.311Z,14.57
2023-05-06T04:51:44.857Z,18.60
2023-05-06T04:54:11.369Z,16.23
2023-05-06T04:56:38.188Z,18.63
2023-05-06T04:59:04.700Z,16.88
2023-05-06T05:01:31.284Z,18.77
2023-05-06T05:03:57.795Z,13.35
2023-05-06T05:06:24.337Z,14.55
2023-05-06T05:08:50.986Z,13.77
2023-05-06T05:11:17.574Z,16.08
2023-05-06T05:13:44.193Z,15.48
2023-05-06T05:16:10.841Z,15.38
2023-05-06T05:18:37.482Z,16.45
2023-05-06T05:21:04.302Z,15.57
2023-05-06T05:23:30.991Z,16.42
2023-05-06T05:25:57.530Z,15.48
2023-05-06T05:28:24.115Z,13.77
2023-05-06T05:30:50.732Z,14.82
2023-05-06T05:33:17.371Z,16.55
2023-05-06T05:35:44.028Z,15.10
2023-05-06T05:38:10.971Z,14.85
2023-05-06T05:40:37.554Z,15.70
2023-05-06T05:43:04.129Z,15.50
2023-05-06T05:45:30.652Z,14.35
2023-05-06T05:47:57.242Z,13.73
2023-05-06T05:50:23.996Z,14.13
2023-05-06T05:52:50.505Z,15.63
2023-05-06T05:55:17.056Z,16.90
2023-05-06T05:57:43.610Z,15.98
2023-05-06T06:00:12.267Z,14.38
2023-05-06T06:02:40.224Z,17.35
2023-05-06T06:05:07.700Z,15.13
2023-05-06T06:07:34.374Z,15.50
2023-05-06T06:10:00.976Z,14.95
2023-05-06T06:12:27.530Z,14.43
2023-05-06T06:14:54.037Z,16.65
2023-05-06T06:17:20.636Z,13.40
2023-05-06T06:19:47.257Z,12.50
2023-05-06T06:22:13.832Z,14.60
2023-05-06T06:24:41.026Z,18.40
2023-05-06T06:27:07.621Z,15.13
2023-05-06T06:29:34.171Z,17.73
2023-05-06T06:32:03.940Z,15.55
2023-05-06T06:34:30.730Z,14.52
2023-05-06T06:36:57.266Z,16.05
2023-05-06T06:39:24.969Z,14.77
2023-05-06T06:41:51.550Z,16.30
2023-05-06T06:44:18.090Z,14.93
2023-05-06T06:46:45.007Z,13.43
2023-05-06T06:49:11.597Z,16.13
2023-05-06T06:51:38.251Z,14.05
2023-05-06T06:54:04.866Z,12.15
2023-05-06T06:56:31.922Z,14.98
2023-05-06T06:58:58.488Z,16.27
2023-05-06T07:01:25.187Z,13.30
2023-05-06T07:03:51.833Z,11.98
2023-05-06T07:06:18.385Z,14.32
2023-05-06T07:08:44.897Z,13.82
2023-05-06T07:11:12.161Z,16.08
2023-05-06T07:13:38.664Z,19.65
2023-05-06T07:16:05.297Z,12.13
2023-05-06T07:18:31.972Z,13.07
2023-05-06T07:20:58.522Z,14.80
2023-05-06T07:23:25.074Z,11.98
2023-05-06T07:25:51.605Z,10.80
2023-05-06T07:28:18.172Z,11.75
2023-05-06T07:30:45.577Z,16.30
2023-05-06T07:33:12.240Z,14.50
2023-05-06T07:35:38.801Z,13.68
2023-05-06T07:38:05.397Z,15.85
2023-05-06T07:40:32.128Z,14.57
2023-05-06T07:43:12.110Z,15.85
2023-05-06T07:45:38.728Z,15.82
2023-05-06T07:48:06.016Z,14.07
2023-05-06T07:50:32.823Z,14.40
2023-05-06T07:53:00.202Z,15.85
2023-05-06T07:55:26.785Z,18.65
2023-05-06T07:57:53.409Z,21.77
2023-05-06T08:00:20.178Z,18.45
2023-05-06T08:02:47.812Z,19.80
2023-05-06T08:05:15.230Z,17.83
2023-05-06T08:07:42.496Z,18.20
2023-05-06T08:10:10.197Z,16.48
2023-05-06T08:12:37.437Z,14.02
2023-05-06T08:15:04.346Z,21.60
2023-05-06T08:17:30.995Z,16.05
2023-05-06T08:19:57.549Z,19.02
2023-05-06T08:22:24.264Z,14.77
2023-05-06T08:24:50.975Z,16.52
2023-05-06T08:27:17.525Z,16.27
2023-05-06T08:29:44.031Z,18.77
2023-05-06T08:32:10.955Z,21.48
2023-05-06T08:34:37.599Z,20.38
2023-05-06T08:37:04.290Z,22.20
2023-05-06T08:39:31.515Z,20.10
2023-05-06T08:41:59.545Z,16.77
2023-05-06T08:44:26.721Z,18.33
2023-05-06T08:46:53.542Z,22.10
2023-05-06T08:49:20.104Z,18.52
2023-05-06T08:51:50.671Z,21.27
2023-05-06T08:54:17.936Z,19.38
2023-05-06T08:56:56.322Z,19.48
2023-05-06T08:59:25.724Z,20.10
2023-05-06T09:01:53.398Z,18.58
2023-05-06T09:04:20.086Z,25.42
2023-05-06T09:06:46.854Z,23.08
2023-05-06T09:09:14.857Z,21.58
2023-05-06T09:11:41.427Z,24.40
2023-05-06T09:14:11.129Z,22.80
2023-05-06T09:16:39.186Z,14.15
2023-05-06T09:19:06.247Z,20.60
2023-05-06T09:21:37.764Z,22.08
2023-05-06T09:24:06.276Z,21.23
2023-05-06T09:26:34.393Z,19.63
2023-05-06T09:29:01.342Z,20.63
2023-05-06T09:31:29.189Z,18.52
2023-05-06T09:33:57.264Z,23.58
2023-05-06T09:36:25.893Z,19.65
2023-05-06T09:38:54.022Z,14.55
2023-05-06T09:41:22.834Z,19.50
2023-05-06T09:43:51.044Z,15.52
2023-05-06T09:46:17.784Z,23.55
2023-05-06T09:48:45.972Z,20.90
2023-05-06T09:51:13.262Z,19.90
2023-05-06T09:53:39.867Z,22.17
2023-05-06T09:56:07.574Z,22.15
2023-05-06T09:58:38.252Z,19.38
2023-05-06T10:01:06.785Z,19.02
2023-05-06T10:03:34.265Z,24.23
2023-05-06T10:06:02.273Z,21.60
2023-05-06T10:08:29.549Z,21.55
2023-05-06T10:10:57.014Z,23.10
2023-05-06T10:13:26.888Z,20.63
2023-05-06T10:15:54.239Z,18.58
2023-05-06T10:18:21.748Z,25.50
2023-05-06T10:20:49.524Z,19.45
2023-05-06T10:23:28.394Z,20.17
2023-05-06T10:25:57.718Z,22.98
2023-05-06T10:28:30.981Z,22.10
2023-05-06T10:30:59.393Z,24.60
2023-05-06T10:33:27.199Z,20.65
2023-05-06T10:36:08.729Z,25.92
2023-05-06T10:38:41.251Z,18.40
2023-05-06T10:41:09.686Z,19.52
2023-05-06T10:43:41.541Z,17.75
2023-05-06T10:46:10.797Z,15.82
2023-05-06T10:48:39.957Z,18.70
2023-05-06T10:54:04.219Z,16.80
2023-05-06T10:56:33.249Z,17.33
2023-05-06T10:59:09.648Z,19.45
2023-05-06T11:01:37.745Z,15.95
2023-05-06T11:04:13.151Z,19.35
2023-05-06T11:09:17.319Z,14.88
2023-05-06T11:12:05.128Z,15.50
2023-05-06T11:14:36.868Z,16.65
2023-05-06T11:17:28.770Z,12.82
2023-05-06T11:20:26.529Z,14.27
2023-05-06T11:22:54.117Z,14.52
2023-05-06T11:25:40.092Z,10.20
2023-05-06T11:28:15.435Z,14.85
2023-05-06T11:30:44.557Z,14.38
2023-05-06T11:35:45.127Z,17.83
2023-05-06T11:38:12.241Z,16.73
2023-05-06T11:40:41.624Z,12.95
2023-05-06T11:43:15.493Z,10.13
2023-05-06T11:45:46.787Z,13.00
2023-05-06T11:48:15.057Z,10.52
2023-05-06T11:50:48.990Z,11.38
2023-05-06T11:53:23.470Z,14.75
2023-05-06T11:55:52.903Z,14.10
2023-05-06T11:58:29.425Z,11.20
2023-05-06T12:00:58.446Z,12.60
2023-05-06T12:03:26.711Z,11.07
2023-05-06T12:05:53.594Z,10.45
2023-05-06T12:08:27.868Z,11.48
2023-05-06T12:10:58.616Z,9.88
2023-05-06T12:13:25.402Z,17.58
2023-05-06T12:15:55.092Z,9.93
2023-05-06T12:18:23.781Z,14.57
2023-05-06T12:20:50.453Z,10.77
2023-05-06T12:23:17.857Z,12.30
2023-05-06T12:25:49.105Z,9.30
2023-05-06T12:28:17.512Z,12.90
2023-05-06T12:30:44.807Z,14.07
2023-05-06T12:33:12.401Z,11.43
2023-05-06T12:35:40.010Z,13.27
2023-05-06T12:38:13.583Z,16.30
2023-05-06T12:40:41.326Z,16.27
2023-05-06T12:43:08.259Z,11.50
2023-05-06T12:45:35.187Z,14.45
2023-05-06T12:48:02.968Z,16.48
2023-05-06T12:50:37.144Z,11.55
2023-05-06T12:53:05.167Z,13.80
2023-05-06T12:55:36.223Z,13.60
2023-05-06T12:58:03.940Z,17.90
2023-05-06T13:00:30.609Z,15.02
2023-05-06T13:02:57.209Z,15.18
2023-05-06T13:05:23.815Z,13.95
2023-05-06T13:07:51.176Z,13.15
2023-05-06T13:10:17.709Z,13.60
2023-05-06T13:12:44.260Z,12.32
2023-05-06T13:15:10.975Z,12.63
2023-05-06T13:17:37.687Z,14.43
2023-05-06T13:20:05.452Z,13.25
2023-05-06T13:22:40.308Z,13.38
2023-05-06T13:25:11.531Z,13.85
2023-05-06T13:27:38.316Z,12.60
2023-05-06T13:30:05.791Z,11.77
2023-05-06T13:32:33.054Z,11.10
2023-05-06T13:34:59.788Z,12.95
2023-05-06T13:37:26.352Z,14.55
2023-05-06T13:39:53.010Z,12.23
2023-05-06T13:42:19.625Z,12.18
2023-05-06T13:44:46.204Z,12.93
2023-05-06T13:47:12.726Z,10.63
2023-05-06T13:49:39.227Z,16.25
2023-05-06T13:52:08.012Z,13.68
2023-05-06T13:54:34.984Z,15.52
2023-05-06T13:57:01.484Z,13.18
2023-05-06T13:59:28.016Z,18.90
2023-05-06T14:02:04.140Z,15.90
2023-05-06T14:04:32.210Z,15.73
2023-05-06T14:06:59.216Z,13.93
2023-05-06T14:09:25.762Z,12.43
2023-05-06T14:11:52.254Z,17.38
2023-05-06T14:14:18.788Z,19.52
2023-05-06T14:16:45.592Z,17.77
2023-05-06T14:19:12.140Z,20.60
2023-05-06T14:21:38.673Z,20.10
2023-05-06T14:24:07.571Z,17.25
2023-05-06T14:26:34.604Z,17.00
2023-05-06T14:29:01.208Z,17.65
2023-05-06T14:31:29.524Z,17.33
2023-05-06T14:33:56.401Z,20.73
2023-05-06T14:36:22.955Z,19.40
2023-05-06T14:38:49.492Z,19.17
2023-05-06T14:41:16.242Z,19.48
2023-05-06T14:43:42.805Z,18.48
2023-05-06T14:46:09.458Z,19.15
2023-05-06T14:48:36.025Z,18.02
2023-05-06T14:51:02.557Z,17.15
2023-05-06T14:53:29.191Z,16.55
2023-05-06T14:55:56.506Z,13.13
2023-05-06T14:58:23.185Z,17.80
2023-05-06T15:00:49.889Z,17.20
2023-05-06T15:03:16.631Z,15.25
2023-05-06T15:05:43.325Z,15.15
2023-05-06T15:08:10.145Z,20.88
2023-05-06T15:10:36.815Z,22.13
2023-05-06T15:13:03.715Z,26.42
2023-05-06T15:15:30.393Z,17.15
2023-05-06T15:17:56.985Z,18.15
2023-05-06T15:20:23.614Z,22.75
2023-05-06T15:22:50.194Z,19.27
2023-05-06T15:25:26.559Z,21.83
2023-05-06T15:27:58.340Z,18.70
2023-05-06T15:30:24.869Z,21.80
2023-05-06T15:32:51.474Z,19.00
2023-05-06T15:35:18.020Z,18.88
2023-05-06T15:37:44.546Z,21.50
2023-05-06T15:40:13.915Z,19.98
2023-05-06T15:42:40.753Z,18.52
2023-05-06T15:45:07.809Z,15.15
2023-05-06T15:47:34.411Z,17.02
2023-05-06T15:50:01.663Z,18.13
2023-05-06T15:52:42.686Z,19.73
2023-05-06T15:55:09.950Z,21.25
2023-05-06T15:57:36.602Z,20.25
2023-05-06T16:00:05.144Z,18.95
2023-05-06T16:02:32.714Z,20.60
2023-05-06T16:04:59.662Z,18.00
2023-05-06T16:07:27.701Z,20.67
2023-05-06T16:09:54.208Z,20.60
2023-05-06T16:12:20.777Z,20.95
2023-05-06T16:14:47.359Z,19.52
2023-05-06T16:17:15.720Z,20.52
2023-05-06T16:19:42.273Z,20.30
2023-05-06T16:22:08.842Z,14.23
2023-05-06T16:24:35.368Z,16.65
2023-05-06T16:27:02.400Z,19.48
2023-05-06T16:29:28.954Z,16.23
2023-05-06T16:31:55.638Z,16.55
2023-05-06T16:34:22.367Z,17.02
2023-05-06T16:36:49.248Z,16.27
2023-05-06T16:39:15.884Z,19.88
2023-05-06T16:41:42.572Z,16.88
2023-05-06T16:44:09.093Z,19.38
2023-05-06T16:46:35.633Z,19.42
2023-05-06T16:49:03.809Z,21.45
2023-05-06T16:51:31.200Z,20.00
2023-05-06T16:53:57.748Z,23.17
2023-05-06T16:56:25.362Z,19.85
2023-05-06T16:58:53.122Z,22.35
2023-05-06T17:01:19.788Z,19.27
2023-05-06T17:03:46.413Z,20.85
2023-05-06T17:06:13.382Z,22.20
2023-05-06T17:08:40.062Z,24.63
2023-05-06T17:11:06.874Z,18.80
2023-05-06T17:13:34.125Z,19.27
2023-05-06T17:16:00.974Z,20.38
2023-05-06T17:18:27.642Z,18.55
2023-05-06T17:20:56.713Z,19.42
2023-05-06T17:23:24.499Z,16.38
2023-05-06T17:25:51.420Z,20.98
2023-05-06T17:28:18.883Z,20.30
2023-05-06T17:30:45.914Z,18.90
2023-05-06T17:33:12.741Z,25.90
2023-05-06T17:35:39.450Z,22.08
2023-05-06T17:38:06.101Z,23.55
2023-05-06T17:40:32.656Z,20.70
2023-05-06T17:42:59.433Z,21.27
2023-05-06T17:45:28.193Z,20.67
2023-05-06T17:47:55.158Z,24.05
2023-05-06T17:50:22.416Z,18.38
2023-05-06T17:52:51.103Z,18.65
2023-05-06T17:55:17.913Z,22.88
2023-05-06T17:57:44.727Z,18.63
2023-05-06T18:00:11.768Z,20.30
2023-05-06T18:02:38.517Z,19.05
2023-05-06T18:05:06.495Z,15.70
2023-05-06T18:07:35.759Z,20.45
2023-05-06T18:12:29.050Z,13.25
2023-05-06T18:14:57.474Z,17.63
2023-05-06T18:17:24.109Z,23.08
2023-05-06T18:19:50.793Z,23.45
2023-05-06T18:22:17.390Z,18.48
2023-05-06T18:24:44.149Z,19.98
2023-05-06T18:27:10.896Z,19.75
2023-05-06T18:29:37.432Z,22.95
2023-05-06T18:32:06.515Z,21.10
2023-05-06T18:36:59.668Z,18.88
2023-05-06T18:39:26.513Z,19.27
2023-05-06T18:41:53.046Z,15.98
2023-05-06T18:44:19.606Z,16.95
2023-05-06T18:46:46.223Z,14.82
2023-05-06T18:49:14.088Z,16.60
2023-05-06T18:51:40.914Z,16.95
2023-05-06T18:54:07.642Z,16.63
2023-05-06T18:56:35.510Z,17.15
2023-05-06T18:59:02.139Z,16.65
2023-05-06T19:01:28.833Z,17.08
2023-05-06T19:03:56.700Z,14.95
2023-05-06T19:06:23.472Z,17.05
2023-05-06T19:08:50.128Z,14.80
2023-05-06T19:11:18.942Z,15.32
2023-05-06T19:13:46.285Z,15.03
2023-05-06T19:16:13.955Z,16.27
2023-05-06T19:18:40.643Z,14.70
2023-05-06T19:21:10.015Z,14.38
2023-05-06T19:23:36.742Z,17.73
2023-05-06T19:26:06.278Z,14.55
2023-05-06T19:28:33.452Z,15.70
2023-05-06T19:31:00.018Z,14.02
2023-05-06T19:33:26.963Z,17.55
2023-05-06T19:35:53.504Z,18.15
2023-05-06T19:38:20.483Z,17.50
2023-05-06T19:40:47.026Z,18.88
2023-05-06T19:43:13.623Z,18.50
2023-05-06T19:45:40.235Z,16.05
2023-05-06T19:48:08.582Z,17.45
2023-05-06T19:50:35.438Z,20.30
2023-05-06T19:53:02.066Z,17.58
2023-05-06T19:55:28.627Z,17.83
2023-05-06T19:57:58.884Z,17.15
2023-05-06T20:00:28.017Z,14.15
2023-05-06T20:02:56.507Z,15.80
2023-05-06T20:05:23.642Z,14.77
2023-05-06T20:07:51.281Z,16.05
2023-05-06T20:10:17.810Z,13.30
2023-05-06T20:12:44.468Z,13.65
2023-05-06T20:15:11.566Z,13.82
2023-05-06T20:17:38.541Z,13.23
2023-05-06T20:20:09.733Z,12.70
2023-05-06T20:22:37.490Z,15.27
2023-05-06T20:25:13.129Z,11.52
2023-05-06T20:27:40.035Z,15.50
2023-05-06T20:30:08.113Z,16.20
2023-05-06T20:32:34.936Z,12.85
2023-05-06T20:35:01.510Z,12.38
2023-05-06T20:37:28.694Z,12.55
2023-05-06T20:39:55.346Z,13.10
2023-05-06T20:42:21.887Z,12.45
2023-05-06T20:44:51.270Z,13.95
2023-05-06T20:49:44.317Z,15.15
2023-05-06T20:52:14.474Z,15.27
2023-05-06T20:54:45.290Z,15.48
2023-05-06T20:57:13.872Z,15.02
2023-05-06T20:59:40.391Z,13.70
2023-05-06T21:02:07.078Z,14.30
2023-05-06T21:04:33.767Z,12.25
2023-05-06T21:07:00.395Z,13.68
2023-05-06T21:09:28.037Z,12.05
2023-05-06T21:11:55.654Z,12.75
2023-05-06T21:14:24.718Z,12.73
2023-05-06T21:16:52.111Z,12.27
2023-05-06T21:19:22.234Z,11.50
2023-05-06T21:21:48.820Z,17.38
2023-05-06T21:24:15.745Z,13.07
2023-05-06T21:26:42.349Z,12.13
2023-05-06T21:29:08.900Z,14.18
2023-05-06T21:31:35.587Z,9.18
2023-05-06T21:34:03.465Z,12.52
2023-05-06T21:36:29.998Z,10.20
2023-05-06T21:39:05.532Z,10.35
2023-05-06T21:41:32.103Z,11.93
2023-05-06T21:43:58.645Z,10.50
2023-05-06T21:46:25.488Z,11.65
2023-05-06T21:48:52.149Z,11.40
2023-05-06T21:51:18.683Z,12.02
2023-05-06T21:53:49.721Z,11.77
2023-05-06T21:56:17.431Z,12.25
2023-05-06T21:58:44.130Z,14.25
2023-05-06T22:01:10.822Z,13.70
2023-05-06T22:03:37.639Z,12.23
2023-05-06T22:06:04.904Z,13.95
2023-05-06T22:08:31.679Z,9.55
2023-05-06T22:10:58.210Z,12.50
2023-05-06T22:13:26.795Z,11.85
2023-05-06T22:15:53.957Z,13.18
2023-05-06T22:18:20.689Z,11.40
2023-05-06T22:20:49.216Z,10.73
2023-05-06T22:23:15.831Z,13.88
2023-05-06T22:25:42.360Z,12.88
2023-05-06T22:28:08.934Z,12.18
2023-05-06T22:30:35.637Z,11.05
2023-05-06T22:33:02.225Z,9.43
2023-05-06T22:35:28.852Z,10.00
2023-05-06T22:37:55.400Z,11.02
2023-05-06T22:40:21.943Z,11.23
2023-05-06T22:42:48.468Z,10.82
2023-05-06T22:45:15.056Z,9.52
2023-05-06T22:47:41.683Z,11.10
2023-05-06T22:50:08.966Z,10.13
2023-05-06T22:52:35.534Z,8.60
2023-05-06T22:55:02.601Z,10.02
2023-05-06T22:57:29.161Z,10.95
2023-05-06T22:59:55.711Z,9.85
2023-05-06T23:02:22.282Z,9.73
2023-05-06T23:04:48.933Z,11.82
2023-05-06T23:07:15.807Z,10.55
2023-05-06T23:09:42.341Z,12.05
2023-05-06T23:12:08.921Z,12.00
2023-05-06T23:14:35.542Z,12.90
2023-05-06T23:17:02.176Z,15.00
2023-05-06T23:19:38.638Z,12.82
2023-05-06T23:22:07.582Z,14.52
2023-05-06T23:24:34.117Z,14.57
2023-05-06T23:27:01.211Z,18.35
2023-05-06T23:29:27.788Z,15.15
2023-05-06T23:31:54.554Z,16.92
2023-05-06T23:34:21.110Z,17.33
2023-05-06T23:36:50.966Z,18.63
2023-05-06T23:39:17.652Z,18.48
2023-05-06T23:41:47.019Z,19.00
2023-05-06T23:46:40.182Z,18.35
2023-05-06T23:49:06.818Z,20.77
2023-05-06T23:51:33.473Z,20.83
2023-05-06T23:53:59.976Z,20.67
2023-05-06T23:56:26.510Z,20.95
2023-05-06T23:58:53.038Z,20.42
